Euskara    
Meteorología y climatología de Navarra
Datos de la estación - Meteo Navarra

Estación de Carcastillo (La Oliva) GN

Altitud 343 m.


Datos desde el 08/04/2021 hasta el 09/04/2021 en horario solar
Los datos son PROVISIONALES

Anterior Página 1 de 1 Siguiente Descargar: Formato para Excel 2000 o superior   Formato csv   Formato para OpenOffice Calc
Fecha Temperatura Humedad relativa Radiación global Insolación Precipitación Vel. viento 10 m Vel. viento 10 m Dir. viento 10 m
°C % W/m² s l/m² m/s km/h °
08/04/2021 0:00 1.5 81 0.0 0 0.0 1.7 6.3 81
08/04/2021 0:10 1.6 81 0.0 0 0.0 2.2 7.9 78
08/04/2021 0:20 1.7 81 0.0 0 0.0 2.7 9.7 74
08/04/2021 0:30 1.7 81 0.0 0 0.0 2.7 9.8 69
08/04/2021 0:40 1.7 82 0.0 0 0.0 2.2 7.8 57
08/04/2021 0:50 1.5 83 0.0 0 0.0 2.0 7.2 56
08/04/2021 1:00 1.8 86 0.0 0 0.0 2.2 8.0 65
08/04/2021 1:10 2.3 88 0.0 0 0.0 2.7 9.6 79
08/04/2021 1:20 3.0 89 0.0 0 0.0 2.8 10.1 98
08/04/2021 1:30 3.7 87 0.0 0 0.0 2.2 8.0 99
08/04/2021 1:40 3.6 84 0.0 0 0.0 2.4 8.8 105
08/04/2021 1:50 3.4 86 0.0 0 0.0 2.3 8.1 97
08/04/2021 2:00 3.2 88 0.0 0 0.0 2.2 8.0 97
08/04/2021 2:10 2.8 88 0.0 0 0.0 2.2 7.8 102
08/04/2021 2:20 2.9 88 0.0 0 0.0 1.8 6.3 115
08/04/2021 2:30 2.8 86 0.0 0 0.0 1.6 5.7 103
08/04/2021 2:40 2.5 88 0.0 0 0.0 2.0 7.3 109
08/04/2021 2:50 2.6 91 0.0 0 0.0 1.8 6.6 111
08/04/2021 3:00 2.2 88 0.0 0 0.0 1.9 6.8 88
08/04/2021 3:10 1.9 90 0.0 0 0.0 2.1 7.6 87
08/04/2021 3:20 1.8 91 0.0 0 0.0 0.7 2.5 95
08/04/2021 3:30 1.5 89 0.0 0 0.0 0.4 1.4 51
08/04/2021 3:40 1.4 89 0.0 0 0.0 0.0 0.1 354
08/04/2021 3:50 1.2 90 0.0 0 0.0 0.6 2.1 82
08/04/2021 4:00 1.1 92 0.0 0 0.0 1.0 3.5 65
08/04/2021 4:10 0.9 92 0.0 0 0.0 1.4 4.9 76
08/04/2021 4:20 0.8 93 0.0 0 0.0 1.4 5.1 74
08/04/2021 4:30 0.7 94 0.0 0 0.0 1.2 4.2 75
08/04/2021 4:40 0.9 96 0.0 0 0.0 1.8 6.5 78
08/04/2021 4:50 1.1 97 0.0 0 0.0 1.6 5.7 71
08/04/2021 5:00 0.9 96 0.0 0 0.0 1.3 4.6 59
08/04/2021 5:10 1.1 98 0.0 0 0.0 1.6 5.8 74
08/04/2021 5:20 1.5 99 0.0 0 0.0 2.2 7.8 76
08/04/2021 5:30 1.7 98 0.0 0 0.0 2.6 9.3 71
08/04/2021 5:40 1.8 97 0.0 0 0.0 1.6 5.8 71
08/04/2021 5:50 2.2 98 0.0 0 0.0 1.6 5.8 49
08/04/2021 6:00 2.6 97 18.4 0 0.0 2.4 8.7 49
08/04/2021 6:10 3.1 96 29.1 0 0.0 1.8 6.5 72
08/04/2021 6:20 3.7 95 31.5 0 0.0 1.9 6.7 71
08/04/2021 6:30 4.4 92 54.7 108 0.0 1.9 7.0 71
08/04/2021 6:40 5.4 92 63.7 20 0.0 2.2 8.0 98
08/04/2021 6:50 6.3 88 82.5 14 0.0 2.8 10.0 122
08/04/2021 7:00 7.1 82 128.0 254 0.0 4.0 14.4 135
08/04/2021 7:10 7.7 79 184.5 540 0.0 3.8 13.6 144
08/04/2021 7:20 8.0 76 152.7 244 0.0 4.2 15.3 146
08/04/2021 7:30 8.3 75 134.3 0 0.0 4.6 16.4 151
08/04/2021 7:40 8.5 74 141.3 0 0.0 4.5 16.3 152
08/04/2021 7:50 8.5 74 137.3 0 0.0 4.3 15.4 151
08/04/2021 8:00 8.8 74 132.8 0 0.0 4.4 16.0 152
08/04/2021 8:10 9.1 72 151.8 0 0.0 4.5 16.2 156
08/04/2021 8:20 9.4 71 171.5 0 0.0 4.7 16.8 158
08/04/2021 8:30 9.6 69 203.5 0 0.0 5.1 18.3 149
08/04/2021 8:40 9.9 68 211.5 0 0.0 5.1 18.3 144
08/04/2021 8:50 10.1 68 219.4 0 0.0 5.0 18.0 145
08/04/2021 9:00 10.4 67 270.4 46 0.0 4.5 16.2 153
08/04/2021 9:10 10.8 65 406.7 600 0.0 6.0 21.7 144
08/04/2021 9:20 11.3 63 509.0 600 0.0 5.5 19.7 143
08/04/2021 9:30 11.5 62 459.8 600 0.0 5.5 19.7 152
08/04/2021 9:40 11.9 60 445.2 600 0.0 5.5 19.7 150
08/04/2021 9:50 11.9 60 422.3 600 0.0 5.5 19.9 142
08/04/2021 10:00 12.3 60 530.1 600 0.0 5.3 19.2 134
08/04/2021 10:10 12.8 57 746.6 600 0.0 5.4 19.5 141
08/04/2021 10:20 13.1 57 648.1 570 0.0 5.5 19.9 138
08/04/2021 10:30 13.4 55 750.0 600 0.0 5.2 18.6 144
08/04/2021 10:40 13.8 54 724.4 540 0.0 4.8 17.2 145
08/04/2021 10:50 13.7 54 650.3 436 0.0 5.0 18.0 147
08/04/2021 11:00 14.1 53 814.0 600 0.0 4.9 17.6 142
08/04/2021 11:10 14.3 52 619.5 486 0.0 5.1 18.3 140
08/04/2021 11:20 14.2 53 761.3 600 0.0 4.7 16.8 146
08/04/2021 11:30 14.6 52 574.2 504 0.0 4.3 15.3 153
08/04/2021 11:40 14.4 53 622.1 470 0.0 4.4 15.7 145
08/04/2021 11:50 14.9 52 798.1 600 0.0 4.5 16.3 137
08/04/2021 12:00 15.3 50 903.0 600 0.0 4.5 16.1 142
08/04/2021 12:10 15.6 50 749.7 484 0.0 4.5 16.2 137
08/04/2021 12:20 15.3 50 839.0 468 0.0 4.3 15.4 135
08/04/2021 12:30 15.4 50 823.0 470 0.0 4.9 17.7 138
08/04/2021 12:40 15.8 50 961.0 600 0.0 5.0 18.1 139
08/04/2021 12:50 16.1 49 789.1 600 0.0 4.8 17.4 131
08/04/2021 13:00 15.9 50 769.7 600 0.0 4.5 16.1 138
08/04/2021 13:10 16.3 48 779.3 588 0.0 4.1 14.9 144
08/04/2021 13:20 16.4 49 640.6 572 0.0 4.0 14.2 148
08/04/2021 13:30 16.3 48 811.0 600 0.0 4.0 14.4 151
08/04/2021 13:40 16.6 48 730.2 600 0.0 4.8 17.1 141
08/04/2021 13:50 16.7 48 877.0 600 0.0 4.1 14.8 145
08/04/2021 14:00 17.1 47 688.5 600 0.0 4.8 17.2 124
08/04/2021 14:10 16.8 47 422.3 224 0.0 4.6 16.6 137
08/04/2021 14:20 16.5 49 576.2 600 0.0 4.1 14.6 137
08/04/2021 14:30 17.2 47 791.3 600 0.0 4.2 15.1 137
08/04/2021 14:40 17.7 46 704.3 600 0.0 4.0 14.3 131
08/04/2021 14:50 17.9 46 684.7 600 0.0 3.6 13.0 140
08/04/2021 15:00 17.9 45 597.0 600 0.0 4.4 15.7 134
08/04/2021 15:10 17.7 45 611.9 600 0.0 4.1 14.7 135
08/04/2021 15:20 18.0 45 627.1 600 0.0 4.7 17.0 132
08/04/2021 15:30 18.1 45 586.9 600 0.0 4.4 15.9 138
08/04/2021 15:40 18.1 45 526.5 600 0.0 4.4 15.7 130
08/04/2021 15:50 18.1 45 498.9 600 0.0 4.0 14.5 128
08/04/2021 16:00 18.2 45 431.8 600 0.0 4.0 14.5 138
08/04/2021 16:10 18.1 45 353.6 462 0.0 3.9 13.9 146
08/04/2021 16:20 18.0 45 412.2 600 0.0 4.1 14.8 143
08/04/2021 16:30 18.1 45 369.7 600 0.0 3.9 14.1 127
08/04/2021 16:40 18.1 45 330.8 600 0.0 4.4 15.7 137
08/04/2021 16:50 18.0 45 275.6 542 0.0 3.5 12.6 138
08/04/2021 17:00 17.8 45 220.5 494 0.0 3.9 14.1 139
08/04/2021 17:10 17.6 46 185.6 428 0.0 3.6 13.0 135
08/04/2021 17:20 17.5 47 114.9 194 0.0 3.3 11.8 128
08/04/2021 17:30 17.1 48 48.6 0 0.0 3.0 10.8 134
08/04/2021 17:40 16.6 50 31.8 0 0.0 2.2 7.9 141
08/04/2021 17:50 16.2 52 27.9 0 0.0 1.8 6.6 128
08/04/2021 18:00 15.8 54 23.5 0 0.0 2.1 7.5 132
08/04/2021 18:10 15.5 54 13.8 0 0.0 1.9 6.7 134
08/04/2021 18:20 15.4 55 0.0 0 0.0 2.0 7.2 133
08/04/2021 18:30 15.1 57 0.0 0 0.0 1.9 6.9 128
08/04/2021 18:40 14.8 58 0.0 0 0.0 1.9 6.7 135
08/04/2021 18:50 14.6 57 0.0 0 0.0 2.5 9.1 142
08/04/2021 19:00 14.6 57 0.0 0 0.0 2.4 8.6 132
08/04/2021 19:10 14.4 58 0.0 0 0.0 2.7 9.9 142
08/04/2021 19:20 14.4 57 0.0 0 0.0 2.8 10.2 137
08/04/2021 19:30 14.1 59 0.0 0 0.0 3.0 10.8 129
08/04/2021 19:40 13.5 62 0.0 0 0.0 2.7 9.5 137
08/04/2021 19:50 13.4 61 0.0 0 0.0 2.9 10.3 142
08/04/2021 20:00 13.4 61 0.0 0 0.0 3.0 10.7 145
08/04/2021 20:10 13.2 62 0.0 0 0.0 2.9 10.3 148
08/04/2021 20:20 13.2 62 0.0 0 0.0 2.4 8.8 132
08/04/2021 20:30 12.7 65 0.0 0 0.0 1.8 6.6 121
08/04/2021 20:40 12.2 67 0.0 0 0.0 1.6 5.7 129
08/04/2021 20:50 12.1 67 0.0 0 0.0 1.8 6.4 149
08/04/2021 21:00 12.4 65 0.0 0 0.0 2.2 8.1 141
08/04/2021 21:10 12.4 65 0.0 0 0.0 3.0 10.9 133
08/04/2021 21:20 12.4 64 0.0 0 0.0 2.9 10.3 144
08/04/2021 21:30 12.7 63 0.0 0 0.0 3.2 11.3 145
08/04/2021 21:40 12.6 64 0.0 0 0.0 3.8 13.6 139
08/04/2021 21:50 12.4 65 0.0 0 0.0 4.0 14.4 140
08/04/2021 22:00 12.3 65 0.0 0 0.0 3.8 13.7 139
08/04/2021 22:10 12.1 65 0.0 0 0.0 3.3 12.0 134
08/04/2021 22:20 11.9 66 0.0 0 0.0 2.6 9.2 119
08/04/2021 22:30 11.6 68 0.0 0 0.0 2.0 7.2 90
08/04/2021 22:40 11.3 70 0.0 0 0.0 0.9 3.3 358
08/04/2021 22:50 11.3 70 0.0 0 0.0 0.7 2.4 219
08/04/2021 23:00 11.4 68 0.0 0 0.0 2.1 7.5 146
08/04/2021 23:10 11.6 68 0.0 0 0.0 2.7 9.9 123
08/04/2021 23:20 11.4 69 0.0 0 0.0 2.4 8.5 148
08/04/2021 23:30 11.3 70 0.0 0 0.0 2.1 7.4 153
08/04/2021 23:40 11.1 71 0.0 0 0.0 2.0 7.3 149
08/04/2021 23:50 10.9 71 0.0 0 0.0 1.9 6.9 131
Anterior Página 1 de 1 Siguiente

NOTA: Tipo de datos según el color:
   - Valores diarios o 10 minutos correctos
   - Valores diarios calculados a partir de un número de datos 10 minutos menor que 144 y mayor que 120, o de un número de datos semihorarios menor que 48 y mayor que 40 (caso de las estaciones de INTIA Y Ministerio)
   - Valores diez minutos estimados


Contacto        Enlaces        Aviso legal